Terminal Aerodrome Forecast
Issued by NWS

Home | Current Version | Previous Version | Text Only | Print | Product List | Glossary On
Versions: 1 2 3 4 5 6 7 8 9 10 11 12
000
FTUS43 KFGF 251700
TAFTVF
TAF
KTVF 251721Z 2518/2618 29016G24KT P6SM SKC
     FM252200 29012KT P6SM SKC
     FM260100 VRB03KT P6SM SKC
     FM261200 12007KT P6SM SCT250
      AMD LTD TO CLD VIS AND WIND=

USA.gov is the U.S. government's official web portal to all federal, state and local government web resources and services.